Time;durP1;ratioP1;P1;durP2;ratioP2;P2;SDS_P1;SDS_P2;PMS_P1;PMS_P2;Temp;Humidity;BMP_temperature;BMP_pressure;BME280_temperature;BME280_humidity;BME280_pressure;Samples;Min_cycle;Max_cycle;Signal;HPM_P1;HPM_P2
2022/09/05 00:00:29;;;;;;;;;;;;;;;23.50;51.57;101568.53;1028245;28;662;-81
2022/09/05 00:01:20;;;;;;;;;;;;;;;23.48;51.63;101571.41;1027532;28;654;-81
2022/09/05 00:02:10;;;;;;;;;;;;;;;23.47;51.54;101572.44;1028357;28;657;-81
2022/09/05 00:03:01;;;;;;;;;;;;;;;23.47;51.91;101561.53;1028073;28;702;-80
2022/09/05 00:03:51;;;;;;;;;;;;;;;23.48;51.50;101571.41;1028226;28;570;-79
2022/09/05 00:04:41;;;;;;;;;;;;;;;23.49;51.84;101564.09;1028273;28;655;-80
2022/09/05 00:05:32;;;;;;;;;;;;;;;23.48;52.17;101556.97;1028152;28;722;-80
2022/09/05 00:06:22;;;;;;;;;;;;;;;23.47;51.66;101560.69;1028259;28;639;-80
2022/09/05 00:07:13;;;;;;;;;;;;;;;23.46;52.17;101565.31;1028122;28;698;-80
2022/09/05 00:08:03;;;;;;;;;;;;;;;23.46;51.71;101559.03;1028210;28;671;-80
2022/09/05 00:08:54;;;;;;;;;;;;;;;23.46;51.68;101567.19;1028260;28;599;-80
2022/09/05 00:09:44;;;;;;;;;;;;;;;23.46;52.15;101572.63;1028163;28;694;-80
2022/09/05 00:10:34;;;;;;;;;;;;;;;23.45;52.07;101570.91;1028439;28;698;-81
2022/09/05 00:11:26;;;;;;;;;;;;;;;23.43;52.13;101562.91;1025529;28;654;-80
2022/09/05 00:12:17;;;;;;;;;;;;;;;23.44;52.27;101556.47;1023806;29;693;-79
2022/09/05 00:13:07;;;;;;;;;;;;;;;23.43;51.85;101562.06;1027840;28;649;-77
2022/09/05 00:13:58;;;;;;;;;;;;;;;23.43;52.29;101559.34;1027777;28;559;-76
2022/09/05 00:14:49;;;;;;;;;;;;;;;23.42;52.26;101557.63;1028288;28;650;-77
2022/09/05 00:15:39;;;;;;;;;;;;;;;23.43;52.46;101564.78;1027659;28;627;-78
2022/09/05 00:16:30;;;;;;;;;;;;;;;23.46;52.40;101559.88;1028854;28;701;-79
2022/09/05 00:17:20;;;;;;;;;;;;;;;23.46;52.13;101559.03;1027705;28;733;-79
2022/09/05 00:18:11;;;;;;;;;;;;;;;23.45;52.24;101565.47;1028776;28;553;-79
2022/09/05 00:19:01;;;;;;;;;;;;;;;23.45;52.11;101562.75;1027672;28;633;-80
2022/09/05 00:19:52;;;;;;;;;;;;;;;23.43;52.07;101559.34;1027682;28;633;-79
2022/09/05 00:20:42;;;;;;;;;;;;;;;23.42;52.15;101561.22;1027631;28;649;-79
2022/09/05 00:21:32;;;;;;;;;;;;;;;23.42;52.04;101565.81;1027722;28;725;-77
2022/09/05 00:22:23;;;;;;;;;;;;;;;23.42;52.04;101560.38;1027894;28;660;-78
2022/09/05 00:23:14;;;;;;;;;;;;;;;23.40;51.90;101570.56;1027812;28;872;-78
2022/09/05 00:24:04;;;;;;;;;;;;;;;23.41;51.98;101566.81;1028221;28;720;-78
2022/09/05 00:24:55;;;;;;;;;;;;;;;23.38;52.00;101562.56;1028311;28;1005;-79
2022/09/05 00:25:45;;;;;;;;;;;;;;;23.38;51.91;101572.59;1028127;28;1479;-77
2022/09/05 00:26:36;;;;;;;;;;;;;;;23.38;52.19;101562.56;1024910;28;701;-77
2022/09/05 00:27:26;;;;;;;;;;;;;;;23.36;52.21;101558.28;1024447;29;646;-77
2022/09/05 00:28:16;;;;;;;;;;;;;;;23.37;52.18;101566.28;1028132;28;685;-77
2022/09/05 00:29:07;;;;;;;;;;;;;;;23.37;51.82;101560.00;1023817;29;670;-77
2022/09/05 00:29:57;;;;;;;;;;;;;;;23.37;51.94;101562.72;1024501;29;598;-78
2022/09/05 00:30:48;;;;;;;;;;;;;;;23.37;51.75;101565.44;1028415;28;630;-77
2022/09/05 00:31:38;;;;;;;;;;;;;;;23.37;51.74;101557.28;1028286;28;627;-77
2022/09/05 00:32:28;;;;;;;;;;;;;;;23.35;52.22;101567.47;1029139;28;694;-78
2022/09/05 00:33:19;;;;;;;;;;;;;;;23.35;52.24;101562.03;1029349;28;642;-78
2022/09/05 00:34:09;;;;;;;;;;;;;;;23.34;52.14;101561.19;1033941;28;1360;-79
2022/09/05 00:35:00;;;;;;;;;;;;;;;23.33;51.88;101564.06;1032889;28;565;-80
2022/09/05 00:35:50;;;;;;;;;;;;;;;23.32;51.82;101560.47;1032815;28;1273;-80
2022/09/05 00:36:41;;;;;;;;;;;;;;;23.32;52.28;101556.91;1032898;28;630;-80
2022/09/05 00:37:31;;;;;;;;;;;;;;;23.33;51.82;101566.78;1033389;28;713;-79
2022/09/05 00:38:22;;;;;;;;;;;;;;;23.31;52.25;101557.94;1032882;28;697;-79
2022/09/05 00:39:12;;;;;;;;;;;;;;;23.30;52.16;101561.66;1032841;28;662;-79
2022/09/05 00:40:02;;;;;;;;;;;;;;;23.30;51.83;101561.66;1032924;28;662;-78
2022/09/05 00:40:55;;;;;;;;;;;;;;;23.31;52.23;101560.66;1029020;28;698;-79
2022/09/05 00:41:45;;;;;;;;;;;;;;;23.27;52.00;101564.75;1029081;28;721;-79
2022/09/05 00:42:36;;;;;;;;;;;;;;;23.27;51.98;101556.59;1032951;28;709;-79
2022/09/05 00:43:26;;;;;;;;;;;;;;;23.28;52.18;101561.84;1032824;28;643;-79
2022/09/05 00:44:16;;;;;;;;;;;;;;;23.28;51.77;101564.56;1032948;28;658;-79
2022/09/05 00:45:07;;;;;;;;;;;;;;;23.26;52.18;101552.16;1032873;28;714;-79
2022/09/05 00:45:57;;;;;;;;;;;;;;;23.26;52.21;101554.88;1029120;28;701;-80
2022/09/05 00:46:48;;;;;;;;;;;;;;;23.24;51.92;101557.75;1029056;28;638;-79
2022/09/05 00:47:38;;;;;;;;;;;;;;;23.26;51.75;101563.03;1032238;28;1569;-79
2022/09/05 00:48:29;;;;;;;;;;;;;;;23.24;52.12;101567.78;1033892;28;753;-79
2022/09/05 00:49:19;;;;;;;;;;;;;;;23.24;51.76;101560.47;1033997;28;623;-78
2022/09/05 00:50:10;;;;;;;;;;;;;;;23.25;52.26;101569.50;1033962;28;571;-79
2022/09/05 00:51:00;;;;;;;;;;;;;;;23.25;52.25;101564.03;1033953;28;718;-79
2022/09/05 00:51:50;;;;;;;;;;;;;;;23.22;52.29;101557.06;1033918;28;674;-80
2022/09/05 00:52:41;;;;;;;;;;;;;;;23.24;52.03;101563.19;1033810;28;1230;-80
2022/09/05 00:53:31;;;;;;;;;;;;;;;23.22;52.20;101561.66;1032791;28;653;-80
2022/09/05 00:54:22;;;;;;;;;;;;;;;23.23;52.00;101558.78;1031584;28;730;-79
2022/09/05 00:55:13;;;;;;;;;;;;;;;23.23;52.33;101560.63;1031612;28;639;-79
2022/09/05 00:56:03;;;;;;;;;;;;;;;23.22;52.10;101557.06;1031756;28;635;-79
2022/09/05 00:56:54;;;;;;;;;;;;;;;23.20;51.91;101562.66;1031933;28;686;-79
2022/09/05 00:57:44;;;;;;;;;;;;;;;23.19;52.38;101557.38;1031198;28;643;-79
2022/09/05 00:58:34;;;;;;;;;;;;;;;23.19;51.92;101565.53;1032772;28;1963;-79
2022/09/05 00:59:25;;;;;;;;;;;;;;;23.19;52.25;101563.69;1031419;28;629;-79
2022/09/05 01:00:15;;;;;;;;;;;;;;;23.18;52.22;101561.13;1031673;28;647;-79
2022/09/05 01:01:06;;;;;;;;;;;;;;;23.18;51.81;101552.97;1032095;28;667;-79
2022/09/05 01:01:56;;;;;;;;;;;;;;;23.17;51.81;101560.28;1028860;28;615;-82
2022/09/05 01:02:47;;;;;;;;;;;;;;;23.17;51.88;101560.28;1029372;28;741;-81
2022/09/05 01:03:37;;;;;;;;;;;;;;;23.16;51.65;101558.56;1029205;28;682;-81
2022/09/05 01:04:28;;;;;;;;;;;;;;;23.16;52.11;101558.56;1029425;28;708;-82
2022/09/05 01:05:18;;;;;;;;;;;;;;;23.15;51.89;101562.28;1029410;28;702;-83
2022/09/05 01:06:08;;;;;;;;;;;;;;;23.17;52.13;101562.13;1029370;28;658;-82
2022/09/05 01:06:59;;;;;;;;;;;;;;;23.17;52.36;101560.28;1029293;28;686;-81
2022/09/05 01:07:49;;;;;;;;;;;;;;;23.17;52.55;101560.28;1029296;28;647;-83
2022/09/05 01:08:40;;;;;;;;;;;;;;;23.18;52.66;101561.13;1029337;28;666;-83
2022/09/05 01:09:31;;;;;;;;;;;;;;;23.17;53.22;101556.69;1028688;28;635;-82
2022/09/05 01:10:21;;;;;;;;;;;;;;;23.17;53.12;101552.09;1029382;28;622;-81
2022/09/05 01:11:12;;;;;;;;;;;;;;;23.17;52.80;101559.41;1029375;28;702;-81
2022/09/05 01:12:02;;;;;;;;;;;;;;;23.15;53.28;101545.97;1028863;28;686;-83
2022/09/05 01:12:52;;;;;;;;;;;;;;;23.15;53.21;101562.28;1029351;28;758;-81
2022/09/05 01:13:43;;;;;;;;;;;;;;;23.15;52.76;101558.72;1028970;28;710;-81
2022/09/05 01:14:33;;;;;;;;;;;;;;;23.14;53.03;101555.16;1028978;28;678;-81
2022/09/05 01:15:24;;;;;;;;;;;;;;;23.15;52.62;101556.00;1028180;28;710;-81
2022/09/05 01:16:14;;;;;;;;;;;;;;;23.13;52.85;101553.44;1029032;28;670;-81
2022/09/05 01:17:04;;;;;;;;;;;;;;;23.14;52.97;101557.03;1029040;28;698;-80
2022/09/05 01:17:55;;;;;;;;;;;;;;;23.12;52.47;101551.75;1031314;28;1321;-81
2022/09/05 01:18:46;;;;;;;;;;;;;;;23.12;52.47;101554.47;1033689;28;1952;-81
2022/09/05 01:19:36;;;;;;;;;;;;;;;23.13;52.47;101548.00;1033004;28;1456;-82
2022/09/05 01:20:27;;;;;;;;;;;;;;;23.13;52.37;101553.44;1033823;28;717;-82
2022/09/05 01:21:17;;;;;;;;;;;;;;;23.13;52.51;101553.44;1028995;28;623;-82
2022/09/05 01:22:08;;;;;;;;;;;;;;;23.13;52.71;101552.59;1030031;28;666;-81
2022/09/05 01:22:58;;;;;;;;;;;;;;;23.12;52.54;101551.75;1033909;28;678;-82
2022/09/05 01:23:49;;;;;;;;;;;;;;;23.12;52.63;101551.75;1033811;28;559;-82
2022/09/05 01:24:39;;;;;;;;;;;;;;;23.10;52.65;101551.09;1028758;28;690;-82
2022/09/05 01:25:29;;;;;;;;;;;;;;;23.12;52.48;101556.31;1029984;28;721;-81
2022/09/05 01:26:20;;;;;;;;;;;;;;;23.10;52.37;101551.09;1033804;28;563;-80
2022/09/05 01:27:10;;;;;;;;;;;;;;;23.09;52.63;101552.09;1033851;28;716;-80
2022/09/05 01:28:01;;;;;;;;;;;;;;;23.09;52.66;101560.25;1033783;28;658;-81
2022/09/05 01:28:51;;;;;;;;;;;;;;;23.10;52.23;101561.09;1033814;28;766;-79
2022/09/05 01:29:41;;;;;;;;;;;;;;;23.10;52.16;101558.38;1033798;28;650;-80
2022/09/05 01:30:32;;;;;;;;;;;;;;;23.10;52.09;101552.94;1033749;28;701;-80
2022/09/05 01:31:22;;;;;;;;;;;;;;;23.08;52.43;101557.69;1033850;28;669;-80
2022/09/05 01:32:14;;;;;;;;;;;;;;;23.09;52.31;101556.69;1033901;28;733;-80
2022/09/05 01:33:04;;;;;;;;;;;;;;;23.07;52.13;101545.97;1028394;28;623;-80
2022/09/05 01:33:55;;;;;;;;;;;;;;;23.07;52.39;101551.41;1030033;28;713;-81
2022/09/05 01:34:46;;;;;;;;;;;;;;;23.09;52.28;101553.97;1033791;28;694;-81
2022/09/05 01:35:36;;;;;;;;;;;;;;;23.07;52.11;101554.13;1033063;28;1122;-81
2022/09/05 01:36:26;;;;;;;;;;;;;;;23.07;52.18;101553.28;1033764;28;685;-80
2022/09/05 01:37:17;;;;;;;;;;;;;;;23.07;52.24;101554.13;1033795;28;697;-80
2022/09/05 01:38:07;;;;;;;;;;;;;;;23.06;52.19;101555.13;1033783;28;607;-80
2022/09/05 01:38:58;;;;;;;;;;;;;;;23.06;52.55;101559.72;1033683;28;694;-80
2022/09/05 01:39:48;;;;;;;;;;;;;;;23.06;52.52;101562.44;1033865;28;654;-79
2022/09/05 01:40:39;;;;;;;;;;;;;;;23.04;52.18;101559.88;1033687;28;706;-82
2022/09/05 01:41:29;;;;;;;;;;;;;;;23.04;52.51;101562.59;1033764;28;658;-81
2022/09/05 01:42:20;;;;;;;;;;;;;;;23.03;52.35;101550.03;1033753;28;586;-82
2022/09/05 01:43:10;;;;;;;;;;;;;;;23.04;52.34;101557.16;1033746;28;579;-82
2022/09/05 01:44:01;;;;;;;;;;;;;;;23.03;52.64;101557.31;1033711;28;665;-80
2022/09/05 01:44:54;;;;;;;;;;;;;;;23.03;52.53;101547.31;1033465;28;653;-80
2022/09/05 01:45:44;;;;;;;;;;;;;;;23.03;52.60;101547.31;1033137;28;631;-80
2022/09/05 01:46:35;;;;;;;;;;;;;;;23.03;52.44;101546.44;1033205;28;701;-80
2022/09/05 01:47:25;;;;;;;;;;;;;;;23.03;52.35;101550.03;1029154;28;1057;-81
2022/09/05 01:48:16;;;;;;;;;;;;;;;23.01;52.77;101549.31;1029418;28;765;-81
2022/09/05 01:49:07;;;;;;;;;;;;;;;23.01;52.28;101554.75;1032051;28;1221;-80
2022/09/05 01:49:58;;;;;;;;;;;;;;;23.01;52.41;101556.63;1028710;28;1105;-78
2022/09/05 01:50:48;;;;;;;;;;;;;;;23.02;52.61;101544.75;1026282;28;1097;-79
2022/09/05 01:51:38;;;;;;;;;;;;;;;23.00;52.82;101544.91;1032397;28;1020;-79
2022/09/05 01:52:31;;;;;;;;;;;;;;;23.00;52.60;101547.63;1030724;28;1093;-78
2022/09/05 01:53:24;;;;;;;;;;;;;;;22.99;52.91;101554.06;1032972;28;1366;-79
2022/09/05 01:54:14;;;;;;;;;;;;;;;22.99;52.80;101548.63;1032081;28;1097;-79
2022/09/05 01:55:05;;;;;;;;;;;;;;;22.99;52.47;101556.78;1030320;28;1172;-78
2022/09/05 01:55:55;;;;;;;;;;;;;;;22.97;52.63;101547.94;1031488;28;1159;-78
2022/09/05 01:56:46;;;;;;;;;;;;;;;22.98;53.00;101554.22;1031402;28;1108;-79
2022/09/05 01:57:36;;;;;;;;;;;;;;;22.99;52.80;101556.78;1031431;28;1120;-79
2022/09/05 01:58:26;;;;;;;;;;;;;;;22.97;52.44;101556.09;1028937;28;1156;-79
2022/09/05 01:59:17;;;;;;;;;;;;;;;22.97;52.90;101553.38;1029931;28;1120;-79
2022/09/05 02:00:07;;;;;;;;;;;;;;;22.97;52.35;101550.66;1031582;28;1143;-79
2022/09/05 02:00:58;;;;;;;;;;;;;;;22.98;52.85;101555.09;1029161;28;1184;-80
2022/09/05 02:01:48;;;;;;;;;;;;;;;22.96;52.63;101551.69;1029150;28;1245;-80
2022/09/05 02:02:39;;;;;;;;;;;;;;;22.96;52.39;101556.25;1028516;28;1152;-79
2022/09/05 02:03:29;;;;;;;;;;;;;;;22.97;52.89;101552.53;1026471;28;1170;-79
2022/09/05 02:04:19;;;;;;;;;;;;;;;22.96;52.55;101551.69;1028877;28;1155;-79
2022/09/05 02:05:11;;;;;;;;;;;;;;;22.96;52.50;101550.81;1030739;28;1089;-79
2022/09/05 02:06:01;;;;;;;;;;;;;;;22.94;52.72;101553.69;1028752;28;1159;-79
2022/09/05 02:06:52;;;;;;;;;;;;;;;22.95;52.64;101552.69;1026786;28;1148;-79
2022/09/05 02:07:42;;;;;;;;;;;;;;;22.94;52.65;101553.69;1032339;28;1226;-80
2022/09/05 02:08:32;;;;;;;;;;;;;;;22.93;52.82;101557.44;1032181;28;1140;-79
2022/09/05 02:09:23;;;;;;;;;;;;;;;22.93;52.48;101559.34;1026079;28;1089;-79
2022/09/05 02:10:14;;;;;;;;;;;;;;;22.93;52.54;101551.19;1027676;28;1100;-79
2022/09/05 02:11:04;;;;;;;;;;;;;;;22.92;52.64;101555.75;1030612;28;1194;-79
2022/09/05 02:11:55;;;;;;;;;;;;;;;22.92;52.43;101549.47;1031430;28;1108;-78
2022/09/05 02:12:46;;;;;;;;;;;;;;;22.91;52.65;101554.06;1030763;28;1135;-78
2022/09/05 02:13:36;;;;;;;;;;;;;;;22.92;52.57;101550.31;1032530;28;1133;-78
2022/09/05 02:14:26;;;;;;;;;;;;;;;22.91;52.74;101559.50;1031577;28;1194;-78
2022/09/05 02:15:17;;;;;;;;;;;;;;;22.91;52.63;101550.47;1027905;28;1276;-79
2022/09/05 02:16:07;;;;;;;;;;;;;;;22.91;52.76;101556.78;1031427;28;1205;-79
2022/09/05 02:16:58;;;;;;;;;;;;;;;22.90;52.73;101557.78;1031218;28;1222;-79
2022/09/05 02:17:48;;;;;;;;;;;;;;;22.91;52.53;101555.91;1030420;28;1146;-79
2022/09/05 02:18:38;;;;;;;;;;;;;;;22.89;52.60;101556.09;1031848;28;1898;-79
2022/09/05 02:19:29;;;;;;;;;;;;;;;22.89;52.62;101556.09;1032360;28;1221;-79
2022/09/05 02:20:20;;;;;;;;;;;;;;;22.90;52.65;101556.94;1030940;28;1181;-79
2022/09/05 02:21:10;;;;;;;;;;;;;;;22.90;52.60;101552.34;1032157;28;663;-79
2022/09/05 02:22:01;;;;;;;;;;;;;;;22.88;53.07;101557.09;1032833;28;735;-79
2022/09/05 02:22:51;;;;;;;;;;;;;;;22.88;53.14;101548.09;1032454;28;721;-81
2022/09/05 02:23:42;;;;;;;;;;;;;;;22.88;53.00;101551.66;1032482;28;670;-81
2022/09/05 02:24:33;;;;;;;;;;;;;;;22.87;52.71;101549.94;1031449;28;852;-81
2022/09/05 02:25:24;;;;;;;;;;;;;;;22.86;53.18;101556.41;1032599;28;737;-78
2022/09/05 02:26:14;;;;;;;;;;;;;;;22.86;52.64;101550.97;1032490;28;656;-79
2022/09/05 02:27:04;;;;;;;;;;;;;;;22.88;53.00;101550.81;1032480;28;666;-79
2022/09/05 02:27:55;;;;;;;;;;;;;;;22.87;52.63;101552.66;1031751;28;639;-79
2022/09/05 02:28:46;;;;;;;;;;;;;;;22.85;53.01;101551.97;1032483;28;590;-80
2022/09/05 02:29:36;;;;;;;;;;;;;;;22.87;53.01;101549.09;1032470;28;682;-80
2022/09/05 02:30:26;;;;;;;;;;;;;;;22.86;53.00;101550.97;1031966;28;678;-80
2022/09/05 02:31:17;;;;;;;;;;;;;;;22.86;52.39;101556.41;1031765;28;627;-80
2022/09/05 02:32:07;;;;;;;;;;;;;;;22.86;52.90;101550.97;1031955;28;701;-80
2022/09/05 02:32:58;;;;;;;;;;;;;;;22.84;52.97;101550.28;1031720;28;702;-80
2022/09/05 02:33:48;;;;;;;;;;;;;;;22.85;53.16;101543.81;1031933;28;619;-80
2022/09/05 02:34:39;;;;;;;;;;;;;;;22.84;52.69;101553.00;1032060;28;576;-80
2022/09/05 02:35:29;;;;;;;;;;;;;;;22.84;52.70;101555.72;1032180;28;692;-80
2022/09/05 02:36:20;;;;;;;;;;;;;;;22.82;52.66;101550.44;1032785;28;691;-80
2022/09/05 02:37:10;;;;;;;;;;;;;;;22.83;52.84;101545.84;1032913;28;757;-80
2022/09/05 02:38:00;;;;;;;;;;;;;;;22.83;52.70;101549.41;1031908;28;760;-79
2022/09/05 02:38:51;;;;;;;;;;;;;;;22.82;52.80;101544.13;1031640;28;1914;-80
2022/09/05 02:39:41;;;;;;;;;;;;;;;22.82;52.98;101544.13;1031814;28;662;-80
2022/09/05 02:40:32;;;;;;;;;;;;;;;22.82;53.19;101545.00;1032039;28;702;-80
2022/09/05 02:41:22;;;;;;;;;;;;;;;22.80;52.99;101544.31;1031822;28;677;-80
2022/09/05 02:42:12;;;;;;;;;;;;;;;22.80;53.08;101538.00;1031946;28;726;-80
2022/09/05 02:43:03;;;;;;;;;;;;;;;22.80;52.94;101543.44;1031741;28;674;-80
2022/09/05 02:43:53;;;;;;;;;;;;;;;22.80;52.79;101544.31;1031834;28;607;-79
2022/09/05 02:44:44;;;;;;;;;;;;;;;22.80;52.80;101544.31;1031915;28;705;-80
2022/09/05 02:45:34;;;;;;;;;;;;;;;22.79;53.04;101545.31;1031755;28;622;-80
2022/09/05 02:46:25;;;;;;;;;;;;;;;22.78;52.61;101546.31;1032163;28;1487;-80
2022/09/05 02:47:15;;;;;;;;;;;;;;;22.78;53.00;101543.59;1033000;28;705;-79
2022/09/05 02:48:05;;;;;;;;;;;;;;;22.78;52.79;101542.75;1033016;28;799;-79
2022/09/05 02:48:56;;;;;;;;;;;;;;;22.77;53.04;101546.47;1032648;28;1481;-79
2022/09/05 02:49:46;;;;;;;;;;;;;;;22.78;53.03;101553.63;1031764;28;690;-80
2022/09/05 02:50:37;;;;;;;;;;;;;;;22.78;52.90;101548.19;1031875;28;1536;-79
2022/09/05 02:51:27;;;;;;;;;;;;;;;22.77;52.57;101547.34;1031850;28;611;-80
2022/09/05 02:52:22;;;;;;;;;;;;;;;22.77;52.49;101544.63;1032015;28;661;-80
2022/09/05 02:53:13;;;;;;;;;;;;;;;22.77;52.95;101541.91;1028653;28;756;-80
2022/09/05 02:54:03;;;;;;;;;;;;;;;22.76;52.63;101553.75;1028474;28;623;-79
2022/09/05 02:54:54;;;;;;;;;;;;;;;22.77;52.84;101557.34;1028582;28;706;-80
2022/09/05 02:55:44;;;;;;;;;;;;;;;22.78;52.54;101553.63;1027963;28;641;-80
2022/09/05 02:56:35;;;;;;;;;;;;;;;22.77;52.70;101554.63;1028087;28;694;-80
2022/09/05 02:57:25;;;;;;;;;;;;;;;22.77;52.57;101557.34;1029575;28;658;-80
2022/09/05 02:58:16;;;;;;;;;;;;;;;22.76;52.43;101563.75;1029442;28;658;-79
2022/09/05 02:59:06;;;;;;;;;;;;;;;22.76;52.76;101555.63;1029427;28;638;-79
2022/09/05 02:59:56;;;;;;;;;;;;;;;22.75;52.44;101551.22;1029396;28;669;-80
2022/09/05 03:00:47;;;;;;;;;;;;;;;22.74;52.37;101557.66;1028919;28;685;-80
2022/09/05 03:01:37;;;;;;;;;;;;;;;22.74;52.79;101558.53;1029501;28;599;-80
2022/09/05 03:02:28;;;;;;;;;;;;;;;22.74;52.88;101557.66;1027921;28;657;-79
2022/09/05 03:03:18;;;;;;;;;;;;;;;22.75;52.45;101559.38;1029168;28;618;-79
2022/09/05 03:04:09;;;;;;;;;;;;;;;22.75;52.70;101556.66;1028990;28;646;-79
2022/09/05 03:04:59;;;;;;;;;;;;;;;22.74;52.79;101560.38;1027984;28;556;-79
2022/09/05 03:05:50;;;;;;;;;;;;;;;22.73;52.38;101551.38;1027545;28;674;-79
2022/09/05 03:06:40;;;;;;;;;;;;;;;22.73;52.45;101555.97;1029086;28;673;-79
2022/09/05 03:07:30;;;;;;;;;;;;;;;22.73;52.85;101555.97;1028418;28;742;-78
2022/09/05 03:08:21;;;;;;;;;;;;;;;22.73;52.65;101561.41;1028545;28;760;-79
2022/09/05 03:09:12;;;;;;;;;;;;;;;22.72;52.46;101559.69;1029357;28;634;-79
2022/09/05 03:10:02;;;;;;;;;;;;;;;22.72;52.38;101562.41;1029417;28;681;-79
2022/09/05 03:10:52;;;;;;;;;;;;;;;22.71;52.40;101558.00;1029296;28;662;-79
2022/09/05 03:11:43;;;;;;;;;;;;;;;22.72;52.75;101559.69;1029404;28;581;-79
2022/09/05 03:12:34;;;;;;;;;;;;;;;22.70;52.37;101561.72;1028844;28;654;-79
2022/09/05 03:13:24;;;;;;;;;;;;;;;22.68;52.88;101563.75;1028013;28;694;-79
2022/09/05 03:14:17;;;;;;;;;;;;;;;22.68;52.56;101555.59;1029069;28;653;-79
2022/09/05 03:15:07;;;;;;;;;;;;;;;22.67;52.88;101564.75;1029383;28;642;-79
2022/09/05 03:15:58;;;;;;;;;;;;;;;22.67;52.45;101557.44;1029416;28;713;-80
2022/09/05 03:16:48;;;;;;;;;;;;;;;22.66;52.85;101561.19;1028477;28;1464;-79
2022/09/05 03:17:38;;;;;;;;;;;;;;;22.67;52.51;101559.31;1029475;28;745;-79
2022/09/05 03:18:29;;;;;;;;;;;;;;;22.67;52.81;101556.59;1029478;28;692;-79
2022/09/05 03:19:20;;;;;;;;;;;;;;;22.65;52.62;101551.31;1028900;28;764;-79
2022/09/05 03:20:10;;;;;;;;;;;;;;;22.67;52.54;101556.59;1028885;28;631;-79
2022/09/05 03:21:02;;;;;;;;;;;;;;;22.67;52.74;101552.00;1029260;28;721;-79
2022/09/05 03:21:52;;;;;;;;;;;;;;;22.67;52.67;101553.88;1028816;28;670;-79
2022/09/05 03:22:43;;;;;;;;;;;;;;;22.65;52.63;101555.91;1029010;28;737;-79
2022/09/05 03:23:33;;;;;;;;;;;;;;;22.67;52.56;101552.00;1028892;28;623;-80
2022/09/05 03:24:24;;;;;;;;;;;;;;;22.65;52.68;101550.47;1029396;28;678;-79
2022/09/05 03:25:14;;;;;;;;;;;;;;;22.64;52.51;101552.34;1029346;28;689;-82
2022/09/05 03:26:04;;;;;;;;;;;;;;;22.65;52.38;101547.75;1029574;28;787;-81
2022/09/05 03:26:55;;;;;;;;;;;;;;;22.65;52.50;101558.63;1029477;28;636;-81
2022/09/05 03:27:45;;;;;;;;;;;;;;;22.64;52.95;101548.75;1029433;28;715;-81
2022/09/05 03:28:36;;;;;;;;;;;;;;;22.61;52.42;101546.34;1029372;28;665;-79
2022/09/05 03:29:26;;;;;;;;;;;;;;;22.64;52.72;101554.19;1029430;28;845;-79
2022/09/05 03:30:17;;;;;;;;;;;;;;;22.63;52.64;101555.22;1024446;29;563;-78
2022/09/05 03:31:07;;;;;;;;;;;;;;;22.62;52.66;101550.78;1025658;28;642;-78
2022/09/05 03:31:58;;;;;;;;;;;;;;;22.61;52.66;101551.78;1028955;28;670;-80
2022/09/05 03:32:48;;;;;;;;;;;;;;;22.60;52.98;101550.09;1029510;28;619;-80
2022/09/05 03:33:39;;;;;;;;;;;;;;;22.59;53.02;101549.22;1029293;28;702;-80
2022/09/05 03:34:29;;;;;;;;;;;;;;;22.60;53.04;101559.09;1029500;28;635;-80
2022/09/05 03:35:20;;;;;;;;;;;;;;;22.60;52.94;101550.09;1029389;28;635;-80
2022/09/05 03:36:10;;;;;;;;;;;;;;;22.59;52.61;101553.81;1028293;28;628;-81
2022/09/05 03:37:02;;;;;;;;;;;;;;;22.60;52.50;101544.66;1028951;28;627;-83
2022/09/05 03:37:52;;;;;;;;;;;;;;;22.59;52.68;101556.53;1028188;28;710;-82
2022/09/05 03:38:42;;;;;;;;;;;;;;;22.59;53.01;101556.53;1029374;28;1982;-81
2022/09/05 03:39:33;;;;;;;;;;;;;;;22.60;52.95;101555.53;1029327;28;839;-82
2022/09/05 03:40:23;;;;;;;;;;;;;;;22.60;52.89;101555.53;1029419;28;661;-82
2022/09/05 03:41:14;;;;;;;;;;;;;;;22.58;52.51;101552.97;1029349;28;634;-81
2022/09/05 03:42:04;;;;;;;;;;;;;;;22.59;52.73;101556.53;1029337;28;634;-81
2022/09/05 03:42:55;;;;;;;;;;;;;;;22.57;52.62;101556.72;1029322;28;654;-81
2022/09/05 03:43:45;;;;;;;;;;;;;;;22.57;52.77;101556.72;1029494;28;701;-81
2022/09/05 03:44:35;;;;;;;;;;;;;;;22.57;52.89;101551.28;1029353;28;690;-81
2022/09/05 03:45:26;;;;;;;;;;;;;;;22.57;52.94;101547.72;1029364;28;638;-81
2022/09/05 03:46:16;;;;;;;;;;;;;;;22.57;52.75;101550.44;1030273;28;1388;-81
2022/09/05 03:47:07;;;;;;;;;;;;;;;22.56;52.87;101554.16;1033383;28;701;-81
2022/09/05 03:47:57;;;;;;;;;;;;;;;22.55;52.92;101558.75;1033367;28;643;-81
2022/09/05 03:48:48;;;;;;;;;;;;;;;22.55;52.84;101550.59;1032343;28;698;-81
2022/09/05 03:49:38;;;;;;;;;;;;;;;22.55;52.56;101560.59;1033449;28;599;-81
2022/09/05 03:50:29;;;;;;;;;;;;;;;22.56;52.90;101554.16;1032340;28;1374;-80
2022/09/05 03:51:19;;;;;;;;;;;;;;;22.55;52.65;101555.16;1033461;28;650;-80
2022/09/05 03:52:09;;;;;;;;;;;;;;;22.54;52.48;101556.19;1033310;28;575;-80
2022/09/05 03:53:00;;;;;;;;;;;;;;;22.55;52.98;101557.88;1033173;28;1190;-80
2022/09/05 03:53:50;;;;;;;;;;;;;;;22.55;52.78;101552.47;1031171;28;635;-79
2022/09/05 03:54:41;;;;;;;;;;;;;;;22.55;52.84;101552.47;1031135;28;1379;-80
2022/09/05 03:55:31;;;;;;;;;;;;;;;22.54;52.89;101564.34;1028502;28;611;-79
2022/09/05 03:56:22;;;;;;;;;;;;;;;22.54;52.97;101553.47;1029174;28;747;-81
2022/09/05 03:57:12;;;;;;;;;;;;;;;22.53;53.02;101560.75;1033438;28;722;-79
2022/09/05 03:58:03;;;;;;;;;;;;;;;22.52;52.79;101554.47;1033379;28;670;-79
2022/09/05 03:58:54;;;;;;;;;;;;;;;22.53;52.97;101560.75;1033483;28;1943;-79
2022/09/05 03:59:44;;;;;;;;;;;;;;;22.52;52.58;101554.47;1032890;28;745;-79
2022/09/05 04:00:35;;;;;;;;;;;;;;;22.52;52.68;101549.03;1033251;28;823;-78
2022/09/05 04:01:25;;;;;;;;;;;;;;;22.50;52.99;101553.78;1033394;28;670;-79
2022/09/05 04:02:16;;;;;;;;;;;;;;;22.52;52.74;101553.63;1033396;28;642;-78
2022/09/05 04:03:06;;;;;;;;;;;;;;;22.52;52.84;101546.31;1033562;28;646;-79
2022/09/05 04:03:57;;;;;;;;;;;;;;;22.51;52.66;101546.47;1033488;28;717;-79
2022/09/05 04:04:47;;;;;;;;;;;;;;;22.51;53.07;101549.19;1032741;28;732;-79
2022/09/05 04:05:38;;;;;;;;;;;;;;;22.50;52.95;101551.06;1033337;28;642;-79
2022/09/05 04:06:28;;;;;;;;;;;;;;;22.49;53.30;101554.78;1033439;28;638;-80
2022/09/05 04:07:18;;;;;;;;;;;;;;;22.48;53.02;101553.09;1033330;28;575;-80
2022/09/05 04:08:09;;;;;;;;;;;;;;;22.47;52.57;101554.09;1033331;28;705;-80
2022/09/05 04:08:59;;;;;;;;;;;;;;;22.49;53.02;101551.22;1034087;28;861;-80
2022/09/05 04:09:50;;;;;;;;;;;;;;;22.48;52.70;101557.66;1034182;28;713;-80
2022/09/05 04:10:40;;;;;;;;;;;;;;;22.48;53.18;101557.66;1034245;28;634;-80
2022/09/05 04:11:31;;;;;;;;;;;;;;;22.47;52.96;101551.38;1033076;28;733;-80
2022/09/05 04:12:21;;;;;;;;;;;;;;;22.47;53.10;101559.53;1034143;28;610;-80
2022/09/05 04:13:11;;;;;;;;;;;;;;;22.46;52.98;101556.97;1034032;28;650;-79
2022/09/05 04:14:02;;;;;;;;;;;;;;;22.46;52.61;101549.69;1034131;28;642;-79
2022/09/05 04:14:52;;;;;;;;;;;;;;;22.46;52.71;101555.09;1034177;28;689;-79
2022/09/05 04:15:43;;;;;;;;;;;;;;;22.45;53.09;101555.25;1034108;28;724;-78
2022/09/05 04:16:33;;;;;;;;;;;;;;;22.44;53.04;101551.69;1026012;28;1455;-79
2022/09/05 04:17:24;;;;;;;;;;;;;;;22.45;52.78;101555.25;1024668;29;710;-79
2022/09/05 04:18:14;;;;;;;;;;;;;;;22.45;53.10;101563.41;1029024;28;649;-79
2022/09/05 04:19:04;;;;;;;;;;;;;;;22.43;52.63;101550.00;1030110;28;615;-79
2022/09/05 04:19:55;;;;;;;;;;;;;;;22.44;53.05;101553.56;1029059;28;596;-80
2022/09/05 04:20:46;;;;;;;;;;;;;;;22.44;53.04;101559.00;1029122;28;623;-80
2022/09/05 04:21:43;;;;;;;;;;;;;;;22.42;52.80;101551.00;1029501;28;631;-80
2022/09/05 04:22:33;;;;;;;;;;;;;;;22.44;52.33;101557.13;1029485;28;619;-80
2022/09/05 04:23:23;;;;;;;;;;;;;;;22.44;52.63;101551.69;1029947;28;701;-80
2022/09/05 04:24:14;;;;;;;;;;;;;;;22.44;52.54;101554.41;1030007;28;666;-80
2022/09/05 04:25:04;;;;;;;;;;;;;;;22.44;52.58;101550.84;1030136;28;609;-80
2022/09/05 04:25:55;;;;;;;;;;;;;;;22.44;52.52;101551.69;1029948;28;662;-80